Hovedside
METAR-TAF:

METAR-TAF

Lufthavner :

Leonardo da Vinci internasjonale lufthavn

Roma-Fiumicino, Italia

breddegrad: 41-48N, lengdegrad: 012-14E, høyde over havet: 2 m

Gjeldene værobservasjon

Denne rapporten ble laget for 28 minutter siden, klokken 04:20 UTC
Vind 14 kt fra Nord-nordøst
Temperatur 11°C
Luftfuktighet 82%
Trykk 1012 hPa
Sikt 10 km eller mer
ingen skyer under 1500 m og ingen bygeskyer

METAR: LIRF 220420Z 02014KT CAVOK 11/08 Q1012 882900// NOSIG

Tid: 06:48 (04:48 UTC)

Varsel

Denne rapporten ble laget for 5 timer og 48 minutter siden, klokken 23:00 UTC
Varsel gyldig fra 22. klokken 00 UTC til 23. klokken 06 UTC
Vind 13 kt fra Nord-nordøst
Sikt 10 km eller mer
Spredte skyer i en høyde av 4000 ft
Midlertidig
fra 22. klokken 00 UTC til 22. klokken 09 UTC
Sikt: 4000 m
regnbyger
Blir
fra 22. klokken 08 UTC til 22. klokken 10 UTC
Vind 15 kt fra Nord-nordøst med vindkast opp mot 25 kt

TAF: LIRF 212300Z 2200/2306 02013KT 9999 SCT040 TEMPO 2200/2209 4000 SHRA BECMG 2208/2210 03015G25KT

Værobservasjoner og værvarsel for over 4000 flyplasser (METAR- og TAF-rapporter).

Tilgjengelige stasjoner er representert av de røde og gule prikkene på kartet.

Hold musepekeren over prikken for å se navnet på stasjonen.

Klikk så for å se værobservasjoner og -varsler.

For å forandre kartet kan du klikke på den grønne knappen med svart kryss for å zoome inn, på den grønne knappen med strek for å zoome ut, eller på de grønne pilene for å se tilstøtende kart.


METAR-TAF: